KCPT

Details ICAO KCPT
Name CLEBURNE MUNI
Region United States
Timezone America/Chicago (UTC-6.0)
Plans Departing 4
Arriving 2
Stats Elevation 854 ft / 260 m (AMSL)
Location 32.353752° -97.433743°
Runways 1
Magnetic Variation 3.673° E
Sunrise 2017-12-12 13:23:19 UTC / 2017-12-12 07:23:19 Local
Sunset 2017-12-12 23:26:44 UTC / 2017-12-12 17:26:44 Local
Advertisement - Login to hide

Runways

ID Width Length Bearing (true) Bearing (mag) Surface Threshold Offset Overrun Length
15 100 ft / 30 m 5,714 ft / 1,742 m 159.30° 155.63° Asphalt 186 ft / 57 m 0 ft / 0 m
33 100 ft / 30 m 5,714 ft / 1,742 m 339.30° 335.63° Asphalt 0 ft / 0 m 0 ft / 0 m

Map

Weather


0- 5 10 15 20 25 30 35+ Temperature / ° C

Clouds and Precipitation
Forecast for 2017-12-13 06:00 UTC. Updated an hour ago

Ground ~20,000 ft ~40,000 ft Winds

METAR

KCPT 130155Z AUTO 31005KT 10SM BKN037 05/M03 A3028 RMK AO2

TAF

Not found

Frequencies

Recorded 119.52 MHz AWOS 3
Approach 135.97 MHz RGNL APP/DEP
Unicom 122.80 MHz CTAF/UNICOM
Warning: Do not use this data for real-world aviation or navigation. No guarantee of current accuracy is given.